Cotes De Bretagne — FW3973 — position and weather

sailwx.info

Track history (hours):
 
Tides and Currents Weather Stations Pressure Air Temp Water Temp Dewpoint Dewpoint Depression Visibility Wind Speed Wind Dir Waves Ship Positions

Cotes De Bretagne

Last reported at 2018-Feb-05 04:53 UTC. Time now 2018-Feb-20 03:56 UTC.
Position N 47°50' W 003°57'.
Warning: this ship's position is 14 days out of date.

Length 75 m; draft 4.2 m.

Type: Dredging. MMSI: 227003850.

Date/timePositionNaut miles runAvg speedWind from/ knotsBaromVisibWave heightAir tempDewpointWater temp
2018-Feb-05 04:53N 47°50' W 003°57'2 2.2
2018-Feb-05 03:58N 47°49' W 003°58'0 0.0
2018-Feb-05 02:38N 47°49' W 003°58'0 0.0
2018-Feb-05 01:53N 47°49' W 003°58'0 0.0
2018-Feb-05 00:58N 47°49' W 003°58'0 0.0
2018-Feb-04 23:48N 47°49' W 003°58'0 0.0
2018-Feb-04 22:48N 47°49' W 003°58'7 7.0
2018-Feb-04 21:48N 47°45' W 003°50'310.2
2018-Feb-04 21:29N 47°44' W 003°45'510.4
2018-Feb-04 21:00N 47°43' W 003°38'1010.3
2018-Feb-04 20:00N 47°42' W 003°23'4 7.8
2018-Feb-04 19:31N 47°45' W 003°19'0 0.1
2018-Feb-04 19:00N 47°45' W 003°19'0 0.0
2018-Feb-04 18:30N 47°45' W 003°19'0 0.0
2018-Feb-04 18:00N 47°45' W 003°19'0 0.0
2018-Feb-04 17:30N 47°45' W 003°19'8 3.9
2018-Feb-04 15:29N 47°37' W 003°18'4 8.9
2018-Feb-04 15:00N 47°34' W 003°15'4 8.9
2018-Feb-04 14:30N 47°30' W 003°11'4 8.4
2018-Feb-04 14:00N 47°26' W 003°08'4 8.3
2018-Feb-04 13:30N 47°23' W 003°04'5 9.3
2018-Feb-04 13:00N 47°19' W 003°00'5 9.5
2018-Feb-04 12:30N 47°16' W 002°55'79 7.8
2018-Feb-04 02:23N 46°14' W 001°42'3 7.6
2018-Feb-04 02:00N 46°12' W 001°40'4 7.5
2018-Feb-04 01:30N 46°09' W 001°38'3 6.9
2018-Feb-04 01:00N 46°06' W 001°35'1 1.3
2018-Feb-04 00:30N 46°06' W 001°34'0 0.9
2018-Feb-04 00:00N 46°06' W 001°33'1 1.3
2018-Feb-03 23:30N 46°06' W 001°34'1 1.4
2018-Feb-03 23:00N 46°06' W 001°35'0 0.3
2018-Feb-03 22:31N 46°06' W 001°35'1 2.4
2018-Feb-03 22:00N 46°06' W 001°33'4 8.1
2018-Feb-03 21:30N 46°06' W 001°27'510.6
2018-Feb-03 21:00N 46°05' W 001°20'5 9.6
2018-Feb-03 20:30N 46°03' W 001°14'5 9.0
2018-Feb-03 19:59N 45°59' W 001°09'7 1.4
2018-Feb-03 15:12N 45°57' W 001°00'2 7.2
2018-Feb-03 14:58N 45°58' W 001°00'4 8.0
2018-Feb-03 14:31N 45°58' W 001°06'4 8.8
2018-Feb-03 14:00N 46°00' W 001°11'510.4
2018-Feb-03 13:30N 46°05' W 001°15'2 3.6
2018-Feb-03 13:01N 46°06' W 001°18'2 4.3
2018-Feb-03 12:31N 46°05' W 001°21'3 5.9
2018-Feb-03 12:01N 46°05' W 001°25'3 5.0
2018-Feb-03 11:31N 46°05' W 001°28'3 5.1
2018-Feb-03 11:01N 46°05' W 001°32'2 4.3
2018-Feb-03 10:31N 46°05' W 001°35'0 1.0
2018-Feb-03 10:01N 46°05' W 001°36'0 0.6
2018-Feb-03 09:30N 46°05' W 001°35'0 0.1
2018-Feb-03 09:01N 46°05' W 001°35'0 0.5
2018-Feb-03 08:31N 46°05' W 001°36'0 0.5
2018-Feb-03 08:00N 46°05' W 001°36'14 9.1
2018-Feb-03 06:31N 46°17' W 001°44'510.4
2018-Feb-03 06:00N 46°23' W 001°45'510.1
2018-Feb-03 05:30N 46°27' W 001°47'3 5.2
2018-Feb-03 05:00N 46°30' W 001°48'0 0.0
2018-Feb-03 04:00N 46°30' W 001°48'0 0.0
2018-Feb-03 03:30N 46°30' W 001°48'7 4.4
2018-Feb-03 02:00N 46°24' W 001°45'4 8.4
2018-Feb-03 01:30N 46°20' W 001°43'5 9.2
2018-Feb-03 00:59N 46°15' W 001°42'4 8.9
2018-Feb-03 00:30N 46°11' W 001°40'4 8.7
2018-Feb-03 00:00N 46°07' W 001°37'2 3.8
2018-Feb-02 23:30N 46°05' W 001°36'0 0.1
2018-Feb-02 23:00N 46°05' W 001°35'0 0.2
2018-Feb-02 22:30N 46°05' W 001°36'0 0.1
2018-Feb-02 22:00N 46°05' W 001°36'0 0.2
2018-Feb-02 21:30N 46°05' W 001°36'0 0.1
2018-Feb-02 21:00N 46°05' W 001°36'0 0.6
2018-Feb-02 20:30N 46°05' W 001°35'1 2.0
2018-Feb-02 20:00N 46°04' W 001°36'71 7.2
2018-Feb-02 10:09N 44°54' W 001°27'2 8.8
2018-Feb-02 09:57N 44°52' W 001°27'4 8.8
2018-Feb-02 09:30N 44°48' W 001°26'4 8.8
2018-Feb-02 09:00N 44°44' W 001°25'4 8.6
2018-Feb-02 08:30N 44°40' W 001°23'4 8.5
2018-Feb-02 08:00N 44°36' W 001°21'3 6.6
2018-Feb-02 07:30N 44°34' W 001°17'4 8.5
2018-Feb-02 07:00N 44°38' W 001°14'0 0.0
2018-Feb-02 06:30N 44°38' W 001°14'0 0.1
2018-Feb-02 05:58N 44°38' W 001°14'0 0.2
2018-Feb-02 05:30N 44°38' W 001°14'0 0.0
2018-Feb-02 05:00N 44°38' W 001°14'1 2.0
2018-Feb-02 04:30N 44°37' W 001°13'1 1.3
2018-Feb-02 04:01N 44°37' W 001°12'0 0.8
2018-Feb-02 03:30N 44°37' W 001°12'0 0.0
2018-Feb-02 03:00N 44°37' W 001°12'0 0.4
2018-Feb-02 02:30N 44°37' W 001°13'0 0.8
2018-Feb-02 02:00N 44°38' W 001°13'1 1.1
2018-Feb-02 01:30N 44°37' W 001°13'0 0.9
2018-Feb-02 01:00N 44°37' W 001°13'1 1.1
2018-Feb-02 00:30N 44°37' W 001°12'0 0.0
2018-Feb-02 00:00N 44°37' W 001°12'0 0.0
2018-Feb-01 23:30N 44°37' W 001°12'0 0.9
2018-Feb-01 23:00N 44°37' W 001°13'0 0.1
2018-Feb-01 22:01N 44°37' W 001°13'0 0.6
2018-Feb-01 21:30N 44°37' W 001°13'0 0.0
2018-Feb-01 19:30N 44°37' W 001°13'0 0.1
2018-Feb-01 19:00N 44°37' W 001°12'0 0.0
2018-Feb-01 18:30N 44°37' W 001°12'0 0.1
2018-Feb-01 18:00N 44°37' W 001°12'0 0.2
2018-Feb-01 17:30N 44°37' W 001°12'0 0.3
2018-Feb-01 17:00N 44°37' W 001°13'0 0.1
2018-Feb-01 16:30N 44°37' W 001°13'0 0.6
2018-Feb-01 16:00N 44°38' W 001°13'0 0.4
2018-Feb-01 15:30N 44°37' W 001°13'0 0.2
2018-Feb-01 14:59N 44°37' W 001°13'0 0.0
2018-Feb-01 13:30N 44°37' W 001°12'0 0.9
2018-Feb-01 13:00N 44°37' W 001°12'0 0.0
2018-Feb-01 12:30N 44°37' W 001°12'0 0.7
2018-Feb-01 12:00N 44°37' W 001°13'0 0.3
2018-Feb-01 11:00N 44°37' W 001°13'1 1.3
2018-Feb-01 10:30N 44°37' W 001°13'0 0.3
2018-Feb-01 10:00N 44°37' W 001°12'0 0.0
2018-Feb-01 09:30N 44°37' W 001°12'1 1.1
2018-Feb-01 09:00N 44°37' W 001°13'0 0.5
2018-Feb-01 08:30N 44°37' W 001°13'0 0.1
2018-Feb-01 07:30N 44°37' W 001°13'0 0.4
2018-Feb-01 07:00N 44°37' W 001°12'0 0.0
2018-Feb-01 06:30N 44°37' W 001°12'0 0.3
2018-Feb-01 06:00N 44°37' W 001°13'0 0.9
2018-Feb-01 05:30N 44°37' W 001°12'0 0.1
2018-Feb-01 05:00N 44°37' W 001°12'0 0.0
2018-Feb-01 04:30N 44°37' W 001°13'0 0.7
2018-Feb-01 04:00N 44°37' W 001°13'0 0.0
2018-Feb-01 03:00N 44°37' W 001°13'0 0.5
2018-Feb-01 02:30N 44°37' W 001°13'0 0.5
2018-Feb-01 02:00N 44°38' W 001°13'1 1.5
2018-Feb-01 01:30N 44°37' W 001°12'0 0.0
2018-Feb-01 01:00N 44°37' W 001°12'0 0.1
2018-Feb-01 00:30N 44°37' W 001°12'0 0.5
2018-Feb-01 00:00N 44°37' W 001°13'0 0.1
2018-Jan-31 23:00N 44°37' W 001°13'0 0.3
2018-Jan-31 22:30N 44°37' W 001°13'0 0.1
2018-Jan-31 21:00N 44°37' W 001°12'0 0.5
2018-Jan-31 20:31N 44°37' W 001°13'0 0.6
2018-Jan-31 20:00N 44°38' W 001°13'1 1.2
2018-Jan-31 19:31N 44°37' W 001°13'0 0.3
2018-Jan-31 19:00N 44°37' W 001°13'1 1.2
2018-Jan-31 18:30N 44°38' W 001°12'0 0.3
2018-Jan-31 18:00N 44°38' W 001°12'0 0.0
2018-Jan-31 17:30N 44°38' W 001°12'0 1.0
2018-Jan-31 17:00N 44°37' W 001°12'0 0.1
2018-Jan-31 16:30N 44°37' W 001°12'0 0.0
2018-Jan-31 16:00N 44°37' W 001°12'0 0.0
2018-Jan-31 15:30N 44°37' W 001°12'0 0.5
2018-Jan-31 15:00N 44°37' W 001°13'0 0.5
2018-Jan-31 14:30N 44°37' W 001°13'0 0.0
2018-Jan-31 13:00N 44°37' W 001°13'0 0.7
2018-Jan-31 12:30N 44°37' W 001°12'0 0.0
2018-Jan-31 12:00N 44°37' W 001°12'0 0.0
2018-Jan-31 11:30N 44°37' W 001°12'0 0.6
2018-Jan-31 11:00N 44°37' W 001°13'0 0.5
2018-Jan-31 10:30N 44°37' W 001°13'0 0.9
2018-Jan-31 10:00N 44°38' W 001°13'0 0.8
2018-Jan-31 09:30N 44°37' W 001°13'0 0.5
2018-Jan-31 09:00N 44°37' W 001°12'0 0.0
2018-Jan-31 08:30N 44°37' W 001°12'0 0.0
2018-Jan-31 08:00N 44°37' W 001°12'0 0.4
2018-Jan-31 07:30N 44°37' W 001°13'1 1.2
2018-Jan-31 07:00N 44°38' W 001°13'0 0.9
2018-Jan-31 06:30N 44°37' W 001°13'0 0.4
2018-Jan-31 06:00N 44°37' W 001°13'0 0.8
2018-Jan-31 05:30N 44°38' W 001°12'0 0.0
2018-Jan-31 05:00N 44°38' W 001°12'0 0.8
2018-Jan-31 04:30N 44°37' W 001°13'0 0.2
2018-Jan-31 04:00N 44°37' W 001°13'0 0.0
2018-Jan-31 03:30N 44°37' W 001°13'0 0.0
2018-Jan-31 03:00N 44°37' W 001°13'0 0.4
2018-Jan-31 02:30N 44°38' W 001°13'1 1.2
2018-Jan-31 02:00N 44°37' W 001°13'0 0.6
2018-Jan-31 01:30N 44°37' W 001°13'0 0.3
2018-Jan-31 01:00N 44°38' W 001°13'1 1.1
2018-Jan-31 00:00N 44°36' W 001°13'0 0.1
2018-Jan-30 23:30N 44°37' W 001°13'1 1.5
2018-Jan-30 23:00N 44°37' W 001°13'0 0.6
2018-Jan-30 22:30N 44°38' W 001°13'0 0.3
2018-Jan-30 21:30N 44°37' W 001°13'1 1.9
2018-Jan-30 21:00N 44°36' W 001°13'0 0.0
2018-Jan-30 20:30N 44°36' W 001°13'0 0.0
2018-Jan-30 20:00N 44°36' W 001°13'1 2.5
2018-Jan-30 19:30N 44°38' W 001°13'0 0.6
2018-Jan-30 19:00N 44°37' W 001°13'0 0.5
2018-Jan-30 18:31N 44°38' W 001°13'1 1.0
2018-Jan-30 18:00N 44°37' W 001°13'1 1.5
2018-Jan-30 17:31N 44°38' W 001°12'0 0.1
2018-Jan-30 17:00N 44°38' W 001°12'0 0.0
2018-Jan-30 16:30N 44°38' W 001°12'0 0.8
2018-Jan-30 16:00N 44°37' W 001°13'0 0.0
2018-Jan-30 15:30N 44°37' W 001°13'0 0.0
2018-Jan-30 15:00N 44°37' W 001°13'0 0.2
2018-Jan-30 14:30N 44°37' W 001°13'0 0.4
2018-Jan-30 13:30N 44°38' W 001°13'1 1.2
2018-Jan-30 13:00N 44°37' W 001°13'1 1.7
2018-Jan-30 12:30N 44°36' W 001°13'0 0.0
2018-Jan-30 12:00N 44°36' W 001°13'0 0.9
2018-Jan-30 11:30N 44°37' W 001°13'1 0.5
2018-Jan-30 10:30N 44°37' W 001°13'0 0.4
2018-Jan-30 09:30N 44°38' W 001°12'0 0.4
2018-Jan-30 09:00N 44°37' W 001°13'0 0.5
2018-Jan-30 08:30N 44°37' W 001°13'0 0.7
2018-Jan-30 08:00N 44°37' W 001°12'0 0.0
2018-Jan-30 07:28N 44°37' W 001°12'0 0.5
2018-Jan-30 07:00N 44°37' W 001°13'1 1.1
2018-Jan-30 06:30N 44°37' W 001°13'1 1.1
2018-Jan-30 05:59N 44°37' W 001°13'0 0.7
2018-Jan-30 05:30N 44°37' W 001°13'0 0.9
2018-Jan-30 05:00N 44°37' W 001°12'0 0.0
2018-Jan-30 04:29N 44°37' W 001°12'0 0.3
2018-Jan-30 04:00N 44°37' W 001°13'1 1.9
2018-Jan-30 03:30N 44°38' W 001°13'0 0.8
2018-Jan-30 03:00N 44°37' W 001°13'0 0.6
2018-Jan-30 02:30N 44°38' W 001°13'0 0.4
2018-Jan-30 02:00N 44°38' W 001°12'0 0.8
2018-Jan-30 01:30N 44°37' W 001°13'1 1.2
2018-Jan-30 01:00N 44°38' W 001°13'1 1.0
2018-Jan-30 00:30N 44°37' W 001°13'0 0.9
2018-Jan-30 00:00N 44°38' W 001°13'1 2.1
2018-Jan-29 23:30N 44°37' W 001°13'0 0.6
2018-Jan-29 23:00N 44°36' W 001°13'0 0.0
2018-Jan-29 22:30N 44°36' W 001°13'1 1.8
2018-Jan-29 22:00N 44°37' W 001°13'0 0.1
2018-Jan-29 21:30N 44°37' W 001°13'0 0.1
2018-Jan-29 21:00N 44°37' W 001°13'0 0.7
2018-Jan-29 20:30N 44°37' W 001°13'1 1.4
2018-Jan-29 20:00N 44°36' W 001°13'0 0.0
2018-Jan-29 19:30N 44°36' W 001°13'0 0.2
2018-Jan-29 19:00N 44°36' W 001°13'1 1.8
2018-Jan-29 18:30N 44°37' W 001°13'0 0.1
2018-Jan-29 18:00N 44°37' W 001°13'0 0.2
2018-Jan-29 17:30N 44°37' W 001°13'0 0.6
2018-Jan-29 17:00N 44°37' W 001°13'0 0.6
2018-Jan-29 16:30N 44°37' W 001°12'0 0.0
2018-Jan-29 16:00N 44°37' W 001°12'0 0.0
2018-Jan-29 15:31N 44°37' W 001°12'0 0.2
2018-Jan-29 15:00N 44°37' W 001°13'0 0.4
2018-Jan-29 14:30N 44°37' W 001°13'1 1.3
2018-Jan-29 14:00N 44°38' W 001°13'1 1.1
2018-Jan-29 13:30N 44°37' W 001°13'0 0.9
2018-Jan-29 13:00N 44°38' W 001°13'0 0.3
2018-Jan-29 12:30N 44°37' W 001°13'1 1.9
2018-Jan-29 12:01N 44°36' W 001°13'0 0.0
2018-Jan-29 11:30N 44°36' W 001°13'0 0.0
2018-Jan-29 11:01N 44°36' W 001°13'1 2.6
2018-Jan-29 10:30N 44°38' W 001°13'0 0.7
2018-Jan-29 10:00N 44°37' W 001°13'0 0.4
2018-Jan-29 09:30N 44°37' W 001°13'0 0.1
2018-Jan-29 09:00N 44°37' W 001°13'0 0.5
2018-Jan-29 08:30N 44°37' W 001°12'0 0.0
2018-Jan-29 08:00N 44°37' W 001°12'1 1.1
2018-Jan-29 07:30N 44°37' W 001°13'0 0.6
2018-Jan-29 07:00N 44°37' W 001°13'0 0.8
2018-Jan-29 06:30N 44°38' W 001°13'0 0.7
2018-Jan-29 06:00N 44°37' W 001°13'1 1.0
2018-Jan-29 05:30N 44°37' W 001°12'0 0.0
2018-Jan-29 05:00N 44°37' W 001°12'0 0.0
2018-Jan-29 04:30N 44°37' W 001°12'1 1.7
2018-Jan-29 04:01N 44°38' W 001°13'0 0.7
2018-Jan-29 03:30N 44°37' W 001°13'0 0.2
2018-Jan-29 03:00N 44°37' W 001°13'0 0.8
2018-Jan-29 02:30N 44°38' W 001°13'0 0.9
2018-Jan-29 02:00N 44°37' W 001°13'0 0.8
2018-Jan-29 01:30N 44°37' W 001°12'0 0.0
2018-Jan-29 01:00N 44°37' W 001°12'0 0.2
2018-Jan-29 00:30N 44°37' W 001°12'0 0.7
2018-Jan-29 00:00N 44°37' W 001°13'0 0.6
2018-Jan-28 23:30N 44°37' W 001°13'0 0.2
2018-Jan-28 23:00N 44°37' W 001°13'0 0.5
2018-Jan-28 22:30N 44°37' W 001°13'1 1.0
2018-Jan-28 22:00N 44°37' W 001°12'0 0.0
2018-Jan-28 21:30N 44°37' W 001°12'1 1.2
2018-Jan-28 21:00N 44°37' W 001°13'0 0.4
2018-Jan-28 20:30N 44°37' W 001°13'0 0.9
2018-Jan-28 20:00N 44°37' W 001°13'0 0.6
2018-Jan-28 19:30N 44°37' W 001°13'1 2.4
2018-Jan-28 19:00N 44°36' W 001°13'0 0.0
2018-Jan-28 18:30N 44°36' W 001°13'0 0.2
2018-Jan-28 18:00N 44°36' W 001°13'1 2.1
2018-Jan-28 17:30N 44°37' W 001°13'0 0.1
2018-Jan-28 17:00N 44°37' W 001°13'0 0.3
2018-Jan-28 16:31N 44°37' W 001°13'0 0.7
2018-Jan-28 16:00N 44°37' W 001°13'0 0.6
2018-Jan-28 15:30N 44°37' W 001°12'0 0.0
2018-Jan-28 15:00N 44°37' W 001°12'0 0.3
2018-Jan-28 14:30N 44°37' W 001°13'0 0.3
2018-Jan-28 14:00N 44°37' W 001°13'0 0.7
2018-Jan-28 13:30N 44°37' W 001°13'0 0.8
2018-Jan-28 13:00N 44°38' W 001°13'0 0.6
2018-Jan-28 12:30N 44°37' W 001°13'0 0.3
2018-Jan-28 12:00N 44°37' W 001°13'1 2.5
2018-Jan-28 11:30N 44°36' W 001°13'0 0.0
2018-Jan-28 11:00N 44°36' W 001°13'0 0.0
2018-Jan-28 10:30N 44°36' W 001°13'1 2.9
2018-Jan-28 10:00N 44°38' W 001°13'1 1.2
2018-Jan-28 09:30N 44°37' W 001°13'0 0.9
2018-Jan-28 08:59N 44°37' W 001°13'0 0.4
2018-Jan-28 08:30N 44°37' W 001°13'1 2.1
2018-Jan-28 08:01N 44°36' W 001°13'0 0.0
2018-Jan-28 07:30N 44°36' W 001°13'0 0.0
2018-Jan-28 07:00N 44°36' W 001°13'1 2.7
2018-Jan-28 06:30N 44°38' W 001°13'0 0.9
2018-Jan-28 06:00N 44°37' W 001°13'0 0.6
2018-Jan-28 05:30N 44°37' W 001°13'0 0.3
2018-Jan-28 05:01N 44°37' W 001°13'1 2.2
2018-Jan-28 04:30N 44°36' W 001°13'0 0.1
2018-Jan-28 04:00N 44°36' W 001°13'0 0.0
2018-Jan-28 03:30N 44°36' W 001°13'1 1.8
2018-Jan-28 03:00N 44°37' W 001°13'0 0.1
2018-Jan-28 02:30N 44°37' W 001°13'0 0.8
2018-Jan-28 02:00N 44°37' W 001°13'0 0.2
2018-Jan-28 01:30N 44°37' W 001°13'1 1.1
2018-Jan-28 01:00N 44°37' W 001°13'0 0.9
2018-Jan-28 00:30N 44°36' W 001°13'0 0.0
2018-Jan-28 00:00N 44°36' W 001°13'1 1.6
2018-Jan-27 23:30N 44°37' W 001°13'0 0.1
2018-Jan-27 23:00N 44°37' W 001°13'0 0.7
2018-Jan-27 22:29N 44°37' W 001°13'0 0.1
2018-Jan-27 22:00N 44°38' W 001°13'1 2.4
2018-Jan-27 21:30N 44°36' W 001°13'0 0.0
2018-Jan-27 21:00N 44°36' W 001°13'0 0.0
2018-Jan-27 20:30N 44°36' W 001°13'1 2.1
2018-Jan-27 20:00N 44°37' W 001°13'0 0.8
2018-Jan-27 19:30N 44°37' W 001°13'0 0.7
2018-Jan-27 19:00N 44°37' W 001°13'0 0.5
2018-Jan-27 18:30N 44°37' W 001°13'1 1.9
2018-Jan-27 18:00N 44°36' W 001°13'0 0.0
2018-Jan-27 17:30N 44°36' W 001°13'0 0.0
2018-Jan-27 17:00N 44°36' W 001°13'1 2.0
2018-Jan-27 16:31N 44°37' W 001°13'0 0.6
2018-Jan-27 16:00N 44°37' W 001°13'0 0.9
2018-Jan-27 15:30N 44°37' W 001°13'0 0.9
2018-Jan-27 15:00N 44°37' W 001°13'1 1.6
2018-Jan-27 14:30N 44°36' W 001°13'0 0.0
2018-Jan-27 13:52N 44°36' W 001°13'0 0.3
2018-Jan-27 13:31N 44°36' W 001°13'1 1.6
2018-Jan-27 13:00N 44°37' W 001°13'1 1.2
2018-Jan-27 12:30N 44°38' W 001°13'0 0.6
2018-Jan-27 12:00N 44°37' W 001°13'1 1.6
2018-Jan-27 11:30N 44°37' W 001°13'0 0.1
2018-Jan-27 11:00N 44°37' W 001°12'1 1.1
2018-Jan-27 10:30N 44°37' W 001°13'0 0.7
2018-Jan-27 10:00N 44°38' W 001°13'0 0.2
2018-Jan-27 09:30N 44°37' W 001°13'0 0.4
2018-Jan-27 09:01N 44°37' W 001°13'1 2.1
2018-Jan-27 08:30N 44°36' W 001°13'0 0.2
2018-Jan-27 08:00N 44°36' W 001°13'0 0.0
2018-Jan-27 07:30N 44°36' W 001°13'1 1.5
2018-Jan-27 07:00N 44°37' W 001°13'0 0.9
2018-Jan-27 06:30N 44°37' W 001°13'0 0.2
2018-Jan-27 06:01N 44°37' W 001°13'0 0.7
2018-Jan-27 05:30N 44°37' W 001°13'1 1.8
2018-Jan-27 05:01N 44°36' W 001°13'0 0.3
2018-Jan-27 04:31N 44°36' W 001°13'0 0.0
2018-Jan-27 04:00N 44°36' W 001°13'1 1.7
2018-Jan-27 03:30N 44°37' W 001°13'1 1.1
2018-Jan-27 03:00N 44°38' W 001°13'0 0.5
2018-Jan-27 02:30N 44°37' W 001°13'0 0.6
2018-Jan-27 02:00N 44°37' W 001°13'1 1.0
2018-Jan-27 01:30N 44°38' W 001°13'0 0.5
2018-Jan-27 01:00N 44°38' W 001°12'0 0.0
2018-Jan-27 00:30N 44°38' W 001°12'1 1.3
2018-Jan-27 00:00N 44°37' W 001°13'0 0.5
2018-Jan-26 23:30N 44°37' W 001°13'0 0.9
2018-Jan-26 23:00N 44°38' W 001°13'1 1.1
2018-Jan-26 22:30N 44°37' W 001°13'0 0.9
2018-Jan-26 22:00N 44°37' W 001°12'0 0.0
2018-Jan-26 21:27N 44°37' W 001°12'0 0.5
2018-Jan-26 21:00N 44°37' W 001°13'1 1.2
2018-Jan-26 20:30N 44°38' W 001°13'1 1.3
2018-Jan-26 20:00N 44°37' W 001°13'0 0.8
2018-Jan-26 19:30N 44°37' W 001°13'1 1.4
2018-Jan-26 19:00N 44°37' W 001°13'1 1.2
2018-Jan-26 18:30N 44°36' W 001°13'0 0.0
2018-Jan-26 18:00N 44°36' W 001°13'1 1.6
2018-Jan-26 17:30N 44°37' W 001°13'0 0.1
2018-Jan-26 17:00N 44°37' W 001°13'0 0.5
2018-Jan-26 16:30N 44°37' W 001°13'0 0.9
2018-Jan-26 16:00N 44°37' W 001°13'0 0.5
2018-Jan-26 15:30N 44°37' W 001°12'0 0.0
2018-Jan-26 15:00N 44°37' W 001°12'0 0.2
2018-Jan-26 14:30N 44°37' W 001°12'0 0.9
2018-Jan-26 14:00N 44°37' W 001°13'0 0.6
2018-Jan-26 13:30N 44°37' W 001°13'0 0.0
2018-Jan-26 13:00N 44°37' W 001°13'0 0.4
2018-Jan-26 12:30N 44°37' W 001°13'0 0.7
2018-Jan-26 12:00N 44°37' W 001°12'0 0.0
2018-Jan-26 11:30N 44°37' W 001°12'0 0.6
2018-Jan-26 11:01N 44°37' W 001°13'0 0.7
2018-Jan-26 10:30N 44°37' W 001°13'1 1.0
2018-Jan-26 10:00N 44°37' W 001°13'0 0.1
2018-Jan-26 09:30N 44°37' W 001°13'0 0.0
2018-Jan-26 09:00N 44°37' W 001°13'0 0.1
2018-Jan-26 08:30N 44°37' W 001°13'0 0.1
2018-Jan-26 08:01N 44°37' W 001°13'0 0.0
2018-Jan-26 07:30N 44°37' W 001°13'0 0.0
2018-Jan-26 07:00N 44°37' W 001°13'0 0.0
2018-Jan-26 06:30N 44°37' W 001°13'0 0.2
2018-Jan-26 06:00N 44°37' W 001°13'0 0.3
2018-Jan-26 05:30N 44°37' W 001°13'0 0.6
2018-Jan-26 05:00N 44°37' W 001°12'  
Track history (hours):
 
Tides and Currents Weather Stations Pressure Air Temp Water Temp Dewpoint Dewpoint Depression Visibility Wind Speed Wind Dir Waves Ship Positions

Cotes De Bretagne

Last reported at 2018-Feb-05 04:53 UTC. Time now 2018-Feb-20 03:56 UTC.
Position N 47°50' W 003°57'.
Warning: this ship's position is 14 days out of date.

Length 75 m; draft 4.2 m.

Type: Dredging. MMSI: 227003850.

Date/timePositionNaut miles runAvg speedWind from/ knotsBaromVisibWave heightAir tempDewpointWater temp
2018-Feb-05 04:53N 47°50' W 003°57'2 2.2
2018-Feb-05 03:58N 47°49' W 003°58'0 0.0
2018-Feb-05 02:38N 47°49' W 003°58'0 0.0
2018-Feb-05 01:53N 47°49' W 003°58'0 0.0
2018-Feb-05 00:58N 47°49' W 003°58'0 0.0
2018-Feb-04 23:48N 47°49' W 003°58'0 0.0
2018-Feb-04 22:48N 47°49' W 003°58'7 7.0
2018-Feb-04 21:48N 47°45' W 003°50'310.2
2018-Feb-04 21:29N 47°44' W 003°45'510.4
2018-Feb-04 21:00N 47°43' W 003°38'1010.3
2018-Feb-04 20:00N 47°42' W 003°23'4 7.8
2018-Feb-04 19:31N 47°45' W 003°19'0 0.1
2018-Feb-04 19:00N 47°45' W 003°19'0 0.0
2018-Feb-04 18:30N 47°45' W 003°19'0 0.0
2018-Feb-04 18:00N 47°45' W 003°19'0 0.0
2018-Feb-04 17:30N 47°45' W 003°19'8 3.9
2018-Feb-04 15:29N 47°37' W 003°18'4 8.9
2018-Feb-04 15:00N 47°34' W 003°15'4 8.9
2018-Feb-04 14:30N 47°30' W 003°11'4 8.4
2018-Feb-04 14:00N 47°26' W 003°08'4 8.3
2018-Feb-04 13:30N 47°23' W 003°04'5 9.3
2018-Feb-04 13:00N 47°19' W 003°00'5 9.5
2018-Feb-04 12:30N 47°16' W 002°55'79 7.8
2018-Feb-04 02:23N 46°14' W 001°42'3 7.6
2018-Feb-04 02:00N 46°12' W 001°40'4 7.5
2018-Feb-04 01:30N 46°09' W 001°38'3 6.9
2018-Feb-04 01:00N 46°06' W 001°35'1 1.3
2018-Feb-04 00:30N 46°06' W 001°34'0 0.9
2018-Feb-04 00:00N 46°06' W 001°33'1 1.3
2018-Feb-03 23:30N 46°06' W 001°34'1 1.4
2018-Feb-03 23:00N 46°06' W 001°35'0 0.3
2018-Feb-03 22:31N 46°06' W 001°35'1 2.4
2018-Feb-03 22:00N 46°06' W 001°33'4 8.1
2018-Feb-03 21:30N 46°06' W 001°27'510.6
2018-Feb-03 21:00N 46°05' W 001°20'5 9.6
2018-Feb-03 20:30N 46°03' W 001°14'5 9.0
2018-Feb-03 19:59N 45°59' W 001°09'7 1.4
2018-Feb-03 15:12N 45°57' W 001°00'2 7.2
2018-Feb-03 14:58N 45°58' W 001°00'4 8.0
2018-Feb-03 14:31N 45°58' W 001°06'4 8.8
2018-Feb-03 14:00N 46°00' W 001°11'510.4
2018-Feb-03 13:30N 46°05' W 001°15'2 3.6
2018-Feb-03 13:01N 46°06' W 001°18'2 4.3
2018-Feb-03 12:31N 46°05' W 001°21'3 5.9
2018-Feb-03 12:01N 46°05' W 001°25'3 5.0
2018-Feb-03 11:31N 46°05' W 001°28'3 5.1
2018-Feb-03 11:01N 46°05' W 001°32'2 4.3
2018-Feb-03 10:31N 46°05' W 001°35'0 1.0
2018-Feb-03 10:01N 46°05' W 001°36'0 0.6
2018-Feb-03 09:30N 46°05' W 001°35'0 0.1
2018-Feb-03 09:01N 46°05' W 001°35'0 0.5
2018-Feb-03 08:31N 46°05' W 001°36'0 0.5
2018-Feb-03 08:00N 46°05' W 001°36'14 9.1
2018-Feb-03 06:31N 46°17' W 001°44'510.4
2018-Feb-03 06:00N 46°23' W 001°45'510.1
2018-Feb-03 05:30N 46°27' W 001°47'3 5.2
2018-Feb-03 05:00N 46°30' W 001°48'0 0.0
2018-Feb-03 04:00N 46°30' W 001°48'0 0.0
2018-Feb-03 03:30N 46°30' W 001°48'7 4.4
2018-Feb-03 02:00N 46°24' W 001°45'4 8.4
2018-Feb-03 01:30N 46°20' W 001°43'5 9.2
2018-Feb-03 00:59N 46°15' W 001°42'4 8.9
2018-Feb-03 00:30N 46°11' W 001°40'4 8.7
2018-Feb-03 00:00N 46°07' W 001°37'2 3.8
2018-Feb-02 23:30N 46°05' W 001°36'0 0.1
2018-Feb-02 23:00N 46°05' W 001°35'0 0.2
2018-Feb-02 22:30N 46°05' W 001°36'0 0.1
2018-Feb-02 22:00N 46°05' W 001°36'0 0.2
2018-Feb-02 21:30N 46°05' W 001°36'0 0.1
2018-Feb-02 21:00N 46°05' W 001°36'0 0.6
2018-Feb-02 20:30N 46°05' W 001°35'1 2.0
2018-Feb-02 20:00N 46°04' W 001°36'71 7.2
2018-Feb-02 10:09N 44°54' W 001°27'2 8.8
2018-Feb-02 09:57N 44°52' W 001°27'4 8.8
2018-Feb-02 09:30N 44°48' W 001°26'4 8.8
2018-Feb-02 09:00N 44°44' W 001°25'4 8.6
2018-Feb-02 08:30N 44°40' W 001°23'4 8.5
2018-Feb-02 08:00N 44°36' W 001°21'3 6.6
2018-Feb-02 07:30N 44°34' W 001°17'4 8.5
2018-Feb-02 07:00N 44°38' W 001°14'0 0.0
2018-Feb-02 06:30N 44°38' W 001°14'0 0.1
2018-Feb-02 05:58N 44°38' W 001°14'0 0.2
2018-Feb-02 05:30N 44°38' W 001°14'0 0.0
2018-Feb-02 05:00N 44°38' W 001°14'1 2.0
2018-Feb-02 04:30N 44°37' W 001°13'1 1.3
2018-Feb-02 04:01N 44°37' W 001°12'0 0.8
2018-Feb-02 03:30N 44°37' W 001°12'0 0.0
2018-Feb-02 03:00N 44°37' W 001°12'0 0.4
2018-Feb-02 02:30N 44°37' W 001°13'0 0.8
2018-Feb-02 02:00N 44°38' W 001°13'1 1.1
2018-Feb-02 01:30N 44°37' W 001°13'0 0.9
2018-Feb-02 01:00N 44°37' W 001°13'1 1.1
2018-Feb-02 00:30N 44°37' W 001°12'0 0.0
2018-Feb-02 00:00N 44°37' W 001°12'0 0.0
2018-Feb-01 23:30N 44°37' W 001°12'0 0.9
2018-Feb-01 23:00N 44°37' W 001°13'0 0.1
2018-Feb-01 22:01N 44°37' W 001°13'0 0.6
2018-Feb-01 21:30N 44°37' W 001°13'0 0.0
2018-Feb-01 19:30N 44°37' W 001°13'0 0.1
2018-Feb-01 19:00N 44°37' W 001°12'0 0.0
2018-Feb-01 18:30N 44°37' W 001°12'0 0.1
2018-Feb-01 18:00N 44°37' W 001°12'0 0.2
2018-Feb-01 17:30N 44°37' W 001°12'0 0.3
2018-Feb-01 17:00N 44°37' W 001°13'0 0.1
2018-Feb-01 16:30N 44°37' W 001°13'0 0.6
2018-Feb-01 16:00N 44°38' W 001°13'0 0.4
2018-Feb-01 15:30N 44°37' W 001°13'0 0.2
2018-Feb-01 14:59N 44°37' W 001°13'0 0.0
2018-Feb-01 13:30N 44°37' W 001°12'0 0.9
2018-Feb-01 13:00N 44°37' W 001°12'0 0.0
2018-Feb-01 12:30N 44°37' W 001°12'0 0.7
2018-Feb-01 12:00N 44°37' W 001°13'0 0.3
2018-Feb-01 11:00N 44°37' W 001°13'1 1.3
2018-Feb-01 10:30N 44°37' W 001°13'0 0.3
2018-Feb-01 10:00N 44°37' W 001°12'0 0.0
2018-Feb-01 09:30N 44°37' W 001°12'1 1.1
2018-Feb-01 09:00N 44°37' W 001°13'0 0.5
2018-Feb-01 08:30N 44°37' W 001°13'0 0.1
2018-Feb-01 07:30N 44°37' W 001°13'0 0.4
2018-Feb-01 07:00N 44°37' W 001°12'0 0.0
2018-Feb-01 06:30N 44°37' W 001°12'0 0.3
2018-Feb-01 06:00N 44°37' W 001°13'0 0.9
2018-Feb-01 05:30N 44°37' W 001°12'0 0.1
2018-Feb-01 05:00N 44°37' W 001°12'0 0.0
2018-Feb-01 04:30N 44°37' W 001°13'0 0.7
2018-Feb-01 04:00N 44°37' W 001°13'0 0.0
2018-Feb-01 03:00N 44°37' W 001°13'0 0.5
2018-Feb-01 02:30N 44°37' W 001°13'0 0.5
2018-Feb-01 02:00N 44°38' W 001°13'1 1.5
2018-Feb-01 01:30N 44°37' W 001°12'0 0.0
2018-Feb-01 01:00N 44°37' W 001°12'0 0.1
2018-Feb-01 00:30N 44°37' W 001°12'0 0.5
2018-Feb-01 00:00N 44°37' W 001°13'0 0.1
2018-Jan-31 23:00N 44°37' W 001°13'0 0.3
2018-Jan-31 22:30N 44°37' W 001°13'0 0.1
2018-Jan-31 21:00N 44°37' W 001°12'0 0.5
2018-Jan-31 20:31N 44°37' W 001°13'0 0.6
2018-Jan-31 20:00N 44°38' W 001°13'1 1.2
2018-Jan-31 19:31N 44°37' W 001°13'0 0.3
2018-Jan-31 19:00N 44°37' W 001°13'1 1.2
2018-Jan-31 18:30N 44°38' W 001°12'0 0.3
2018-Jan-31 18:00N 44°38' W 001°12'0 0.0
2018-Jan-31 17:30N 44°38' W 001°12'0 1.0
2018-Jan-31 17:00N 44°37' W 001°12'0 0.1
2018-Jan-31 16:30N 44°37' W 001°12'0 0.0
2018-Jan-31 16:00N 44°37' W 001°12'0 0.0
2018-Jan-31 15:30N 44°37' W 001°12'0 0.5
2018-Jan-31 15:00N 44°37' W 001°13'0 0.5
2018-Jan-31 14:30N 44°37' W 001°13'0 0.0
2018-Jan-31 13:00N 44°37' W 001°13'0 0.7
2018-Jan-31 12:30N 44°37' W 001°12'0 0.0
2018-Jan-31 12:00N 44°37' W 001°12'0 0.0
2018-Jan-31 11:30N 44°37' W 001°12'0 0.6
2018-Jan-31 11:00N 44°37' W 001°13'0 0.5
2018-Jan-31 10:30N 44°37' W 001°13'0 0.9
2018-Jan-31 10:00N 44°38' W 001°13'0 0.8
2018-Jan-31 09:30N 44°37' W 001°13'0 0.5
2018-Jan-31 09:00N 44°37' W 001°12'0 0.0
2018-Jan-31 08:30N 44°37' W 001°12'0 0.0
2018-Jan-31 08:00N 44°37' W 001°12'0 0.4
2018-Jan-31 07:30N 44°37' W 001°13'1 1.2
2018-Jan-31 07:00N 44°38' W 001°13'0 0.9
2018-Jan-31 06:30N 44°37' W 001°13'0 0.4
2018-Jan-31 06:00N 44°37' W 001°13'0 0.8
2018-Jan-31 05:30N 44°38' W 001°12'0 0.0
2018-Jan-31 05:00N 44°38' W 001°12'0 0.8
2018-Jan-31 04:30N 44°37' W 001°13'0 0.2
2018-Jan-31 04:00N 44°37' W 001°13'0 0.0
2018-Jan-31 03:30N 44°37' W 001°13'0 0.0
2018-Jan-31 03:00N 44°37' W 001°13'0 0.4
2018-Jan-31 02:30N 44°38' W 001°13'1 1.2
2018-Jan-31 02:00N 44°37' W 001°13'0 0.6
2018-Jan-31 01:30N 44°37' W 001°13'0 0.3
2018-Jan-31 01:00N 44°38' W 001°13'1 1.1
2018-Jan-31 00:00N 44°36' W 001°13'0 0.1
2018-Jan-30 23:30N 44°37' W 001°13'1 1.5
2018-Jan-30 23:00N 44°37' W 001°13'0 0.6
2018-Jan-30 22:30N 44°38' W 001°13'0 0.3
2018-Jan-30 21:30N 44°37' W 001°13'1 1.9
2018-Jan-30 21:00N 44°36' W 001°13'0 0.0
2018-Jan-30 20:30N 44°36' W 001°13'0 0.0
2018-Jan-30 20:00N 44°36' W 001°13'1 2.5
2018-Jan-30 19:30N 44°38' W 001°13'0 0.6
2018-Jan-30 19:00N 44°37' W 001°13'0 0.5
2018-Jan-30 18:31N 44°38' W 001°13'1 1.0
2018-Jan-30 18:00N 44°37' W 001°13'1 1.5
2018-Jan-30 17:31N 44°38' W 001°12'0 0.1
2018-Jan-30 17:00N 44°38' W 001°12'0 0.0
2018-Jan-30 16:30N 44°38' W 001°12'0 0.8
2018-Jan-30 16:00N 44°37' W 001°13'0 0.0
2018-Jan-30 15:30N 44°37' W 001°13'0 0.0
2018-Jan-30 15:00N 44°37' W 001°13'0 0.2
2018-Jan-30 14:30N 44°37' W 001°13'0 0.4
2018-Jan-30 13:30N 44°38' W 001°13'1 1.2
2018-Jan-30 13:00N 44°37' W 001°13'1 1.7
2018-Jan-30 12:30N 44°36' W 001°13'0 0.0
2018-Jan-30 12:00N 44°36' W 001°13'0 0.9
2018-Jan-30 11:30N 44°37' W 001°13'1 0.5
2018-Jan-30 10:30N 44°37' W 001°13'0 0.4
2018-Jan-30 09:30N 44°38' W 001°12'0 0.4
2018-Jan-30 09:00N 44°37' W 001°13'0 0.5
2018-Jan-30 08:30N 44°37' W 001°13'0 0.7
2018-Jan-30 08:00N 44°37' W 001°12'0 0.0
2018-Jan-30 07:28N 44°37' W 001°12'0 0.5
2018-Jan-30 07:00N 44°37' W 001°13'1 1.1
2018-Jan-30 06:30N 44°37' W 001°13'1 1.1
2018-Jan-30 05:59N 44°37' W 001°13'0 0.7
2018-Jan-30 05:30N 44°37' W 001°13'0 0.9
2018-Jan-30 05:00N 44°37' W 001°12'0 0.0
2018-Jan-30 04:29N 44°37' W 001°12'0 0.3
2018-Jan-30 04:00N 44°37' W 001°13'1 1.9
2018-Jan-30 03:30N 44°38' W 001°13'0 0.8
2018-Jan-30 03:00N 44°37' W 001°13'0 0.6
2018-Jan-30 02:30N 44°38' W 001°13'0 0.4
2018-Jan-30 02:00N 44°38' W 001°12'0 0.8
2018-Jan-30 01:30N 44°37' W 001°13'1 1.2
2018-Jan-30 01:00N 44°38' W 001°13'1 1.0
2018-Jan-30 00:30N 44°37' W 001°13'0 0.9
2018-Jan-30 00:00N 44°38' W 001°13'1 2.1
2018-Jan-29 23:30N 44°37' W 001°13'0 0.6
2018-Jan-29 23:00N 44°36' W 001°13'0 0.0
2018-Jan-29 22:30N 44°36' W 001°13'1 1.8
2018-Jan-29 22:00N 44°37' W 001°13'0 0.1
2018-Jan-29 21:30N 44°37' W 001°13'0 0.1
2018-Jan-29 21:00N 44°37' W 001°13'0 0.7
2018-Jan-29 20:30N 44°37' W 001°13'1 1.4
2018-Jan-29 20:00N 44°36' W 001°13'0 0.0
2018-Jan-29 19:30N 44°36' W 001°13'0 0.2
2018-Jan-29 19:00N 44°36' W 001°13'1 1.8
2018-Jan-29 18:30N 44°37' W 001°13'0 0.1
2018-Jan-29 18:00N 44°37' W 001°13'0 0.2
2018-Jan-29 17:30N 44°37' W 001°13'0 0.6
2018-Jan-29 17:00N 44°37' W 001°13'0 0.6
2018-Jan-29 16:30N 44°37' W 001°12'0 0.0
2018-Jan-29 16:00N 44°37' W 001°12'0 0.0
2018-Jan-29 15:31N 44°37' W 001°12'0 0.2
2018-Jan-29 15:00N 44°37' W 001°13'0 0.4
2018-Jan-29 14:30N 44°37' W 001°13'1 1.3
2018-Jan-29 14:00N 44°38' W 001°13'1 1.1
2018-Jan-29 13:30N 44°37' W 001°13'0 0.9
2018-Jan-29 13:00N 44°38' W 001°13'0 0.3
2018-Jan-29 12:30N 44°37' W 001°13'1 1.9
2018-Jan-29 12:01N 44°36' W 001°13'0 0.0
2018-Jan-29 11:30N 44°36' W 001°13'0 0.0
2018-Jan-29 11:01N 44°36' W 001°13'1 2.6
2018-Jan-29 10:30N 44°38' W 001°13'0 0.7
2018-Jan-29 10:00N 44°37' W 001°13'0 0.4
2018-Jan-29 09:30N 44°37' W 001°13'0 0.1
2018-Jan-29 09:00N 44°37' W 001°13'0 0.5
2018-Jan-29 08:30N 44°37' W 001°12'0 0.0
2018-Jan-29 08:00N 44°37' W 001°12'1 1.1
2018-Jan-29 07:30N 44°37' W 001°13'0 0.6
2018-Jan-29 07:00N 44°37' W 001°13'0 0.8
2018-Jan-29 06:30N 44°38' W 001°13'0 0.7
2018-Jan-29 06:00N 44°37' W 001°13'1 1.0
2018-Jan-29 05:30N 44°37' W 001°12'0 0.0
2018-Jan-29 05:00N 44°37' W 001°12'0 0.0
2018-Jan-29 04:30N 44°37' W 001°12'1 1.7
2018-Jan-29 04:01N 44°38' W 001°13'0 0.7
2018-Jan-29 03:30N 44°37' W 001°13'0 0.2
2018-Jan-29 03:00N 44°37' W 001°13'0 0.8
2018-Jan-29 02:30N 44°38' W 001°13'0 0.9
2018-Jan-29 02:00N 44°37' W 001°13'0 0.8
2018-Jan-29 01:30N 44°37' W 001°12'0 0.0
2018-Jan-29 01:00N 44°37' W 001°12'0 0.2
2018-Jan-29 00:30N 44°37' W 001°12'0 0.7
2018-Jan-29 00:00N 44°37' W 001°13'0 0.6
2018-Jan-28 23:30N 44°37' W 001°13'0 0.2
2018-Jan-28 23:00N 44°37' W 001°13'0 0.5
2018-Jan-28 22:30N 44°37' W 001°13'1 1.0
2018-Jan-28 22:00N 44°37' W 001°12'0 0.0
2018-Jan-28 21:30N 44°37' W 001°12'1 1.2
2018-Jan-28 21:00N 44°37' W 001°13'0 0.4
2018-Jan-28 20:30N 44°37' W 001°13'0 0.9
2018-Jan-28 20:00N 44°37' W 001°13'0 0.6
2018-Jan-28 19:30N 44°37' W 001°13'1 2.4
2018-Jan-28 19:00N 44°36' W 001°13'0 0.0
2018-Jan-28 18:30N 44°36' W 001°13'0 0.2
2018-Jan-28 18:00N 44°36' W 001°13'1 2.1
2018-Jan-28 17:30N 44°37' W 001°13'0 0.1
2018-Jan-28 17:00N 44°37' W 001°13'0 0.3
2018-Jan-28 16:31N 44°37' W 001°13'0 0.7
2018-Jan-28 16:00N 44°37' W 001°13'0 0.6
2018-Jan-28 15:30N 44°37' W 001°12'0 0.0
2018-Jan-28 15:00N 44°37' W 001°12'0 0.3
2018-Jan-28 14:30N 44°37' W 001°13'0 0.3
2018-Jan-28 14:00N 44°37' W 001°13'0 0.7
2018-Jan-28 13:30N 44°37' W 001°13'0 0.8
2018-Jan-28 13:00N 44°38' W 001°13'0 0.6
2018-Jan-28 12:30N 44°37' W 001°13'0 0.3
2018-Jan-28 12:00N 44°37' W 001°13'1 2.5
2018-Jan-28 11:30N 44°36' W 001°13'0 0.0
2018-Jan-28 11:00N 44°36' W 001°13'0 0.0
2018-Jan-28 10:30N 44°36' W 001°13'1 2.9
2018-Jan-28 10:00N 44°38' W 001°13'1 1.2
2018-Jan-28 09:30N 44°37' W 001°13'0 0.9
2018-Jan-28 08:59N 44°37' W 001°13'0 0.4
2018-Jan-28 08:30N 44°37' W 001°13'1 2.1
2018-Jan-28 08:01N 44°36' W 001°13'0 0.0
2018-Jan-28 07:30N 44°36' W 001°13'0 0.0
2018-Jan-28 07:00N 44°36' W 001°13'1 2.7
2018-Jan-28 06:30N 44°38' W 001°13'0 0.9
2018-Jan-28 06:00N 44°37' W 001°13'0 0.6
2018-Jan-28 05:30N 44°37' W 001°13'0 0.3
2018-Jan-28 05:01N 44°37' W 001°13'1 2.2
2018-Jan-28 04:30N 44°36' W 001°13'0 0.1
2018-Jan-28 04:00N 44°36' W 001°13'0 0.0
2018-Jan-28 03:30N 44°36' W 001°13'1 1.8
2018-Jan-28 03:00N 44°37' W 001°13'0 0.1
2018-Jan-28 02:30N 44°37' W 001°13'0 0.8
2018-Jan-28 02:00N 44°37' W 001°13'0 0.2
2018-Jan-28 01:30N 44°37' W 001°13'1 1.1
2018-Jan-28 01:00N 44°37' W 001°13'0 0.9
2018-Jan-28 00:30N 44°36' W 001°13'0 0.0
2018-Jan-28 00:00N 44°36' W 001°13'1 1.6
2018-Jan-27 23:30N 44°37' W 001°13'0 0.1
2018-Jan-27 23:00N 44°37' W 001°13'0 0.7
2018-Jan-27 22:29N 44°37' W 001°13'0 0.1
2018-Jan-27 22:00N 44°38' W 001°13'1 2.4
2018-Jan-27 21:30N 44°36' W 001°13'0 0.0
2018-Jan-27 21:00N 44°36' W 001°13'0 0.0
2018-Jan-27 20:30N 44°36' W 001°13'1 2.1
2018-Jan-27 20:00N 44°37' W 001°13'0 0.8
2018-Jan-27 19:30N 44°37' W 001°13'0 0.7
2018-Jan-27 19:00N 44°37' W 001°13'0 0.5
2018-Jan-27 18:30N 44°37' W 001°13'1 1.9
2018-Jan-27 18:00N 44°36' W 001°13'0 0.0
2018-Jan-27 17:30N 44°36' W 001°13'0 0.0
2018-Jan-27 17:00N 44°36' W 001°13'1 2.0
2018-Jan-27 16:31N 44°37' W 001°13'0 0.6
2018-Jan-27 16:00N 44°37' W 001°13'0 0.9
2018-Jan-27 15:30N 44°37' W 001°13'0 0.9
2018-Jan-27 15:00N 44°37' W 001°13'1 1.6
2018-Jan-27 14:30N 44°36' W 001°13'0 0.0
2018-Jan-27 13:52N 44°36' W 001°13'0 0.3
2018-Jan-27 13:31N 44°36' W 001°13'1 1.6
2018-Jan-27 13:00N 44°37' W 001°13'1 1.2
2018-Jan-27 12:30N 44°38' W 001°13'0 0.6
2018-Jan-27 12:00N 44°37' W 001°13'1 1.6
2018-Jan-27 11:30N 44°37' W 001°13'0 0.1
2018-Jan-27 11:00N 44°37' W 001°12'1 1.1
2018-Jan-27 10:30N 44°37' W 001°13'0 0.7
2018-Jan-27 10:00N 44°38' W 001°13'0 0.2
2018-Jan-27 09:30N 44°37' W 001°13'0 0.4
2018-Jan-27 09:01N 44°37' W 001°13'1 2.1
2018-Jan-27 08:30N 44°36' W 001°13'0 0.2
2018-Jan-27 08:00N 44°36' W 001°13'0 0.0
2018-Jan-27 07:30N 44°36' W 001°13'1 1.5
2018-Jan-27 07:00N 44°37' W 001°13'0 0.9
2018-Jan-27 06:30N 44°37' W 001°13'0 0.2
2018-Jan-27 06:01N 44°37' W 001°13'0 0.7
2018-Jan-27 05:30N 44°37' W 001°13'1 1.8
2018-Jan-27 05:01N 44°36' W 001°13'0 0.3
2018-Jan-27 04:31N 44°36' W 001°13'0 0.0
2018-Jan-27 04:00N 44°36' W 001°13'1 1.7
2018-Jan-27 03:30N 44°37' W 001°13'1 1.1
2018-Jan-27 03:00N 44°38' W 001°13'0 0.5
2018-Jan-27 02:30N 44°37' W 001°13'0 0.6
2018-Jan-27 02:00N 44°37' W 001°13'1 1.0
2018-Jan-27 01:30N 44°38' W 001°13'0 0.5
2018-Jan-27 01:00N 44°38' W 001°12'0 0.0
2018-Jan-27 00:30N 44°38' W 001°12'1 1.3
2018-Jan-27 00:00N 44°37' W 001°13'0 0.5
2018-Jan-26 23:30N 44°37' W 001°13'0 0.9
2018-Jan-26 23:00N 44°38' W 001°13'1 1.1
2018-Jan-26 22:30N 44°37' W 001°13'0 0.9
2018-Jan-26 22:00N 44°37' W 001°12'0 0.0
2018-Jan-26 21:27N 44°37' W 001°12'0 0.5
2018-Jan-26 21:00N 44°37' W 001°13'1 1.2
2018-Jan-26 20:30N 44°38' W 001°13'1 1.3
2018-Jan-26 20:00N 44°37' W 001°13'0 0.8
2018-Jan-26 19:30N 44°37' W 001°13'1 1.4
2018-Jan-26 19:00N 44°37' W 001°13'1 1.2
2018-Jan-26 18:30N 44°36' W 001°13'0 0.0
2018-Jan-26 18:00N 44°36' W 001°13'1 1.6
2018-Jan-26 17:30N 44°37' W 001°13'0 0.1
2018-Jan-26 17:00N 44°37' W 001°13'0 0.5
2018-Jan-26 16:30N 44°37' W 001°13'0 0.9
2018-Jan-26 16:00N 44°37' W 001°13'0 0.5
2018-Jan-26 15:30N 44°37' W 001°12'0 0.0
2018-Jan-26 15:00N 44°37' W 001°12'0 0.2
2018-Jan-26 14:30N 44°37' W 001°12'0 0.9
2018-Jan-26 14:00N 44°37' W 001°13'0 0.6
2018-Jan-26 13:30N 44°37' W 001°13'0 0.0
2018-Jan-26 13:00N 44°37' W 001°13'0 0.4
2018-Jan-26 12:30N 44°37' W 001°13'0 0.7
2018-Jan-26 12:00N 44°37' W 001°12'0 0.0
2018-Jan-26 11:30N 44°37' W 001°12'0 0.6
2018-Jan-26 11:01N 44°37' W 001°13'0 0.7
2018-Jan-26 10:30N 44°37' W 001°13'1 1.0
2018-Jan-26 10:00N 44°37' W 001°13'0 0.1
2018-Jan-26 09:30N 44°37' W 001°13'0 0.0
2018-Jan-26 09:00N 44°37' W 001°13'0 0.1
2018-Jan-26 08:30N 44°37' W 001°13'0 0.1
2018-Jan-26 08:01N 44°37' W 001°13'0 0.0
2018-Jan-26 07:30N 44°37' W 001°13'0 0.0
2018-Jan-26 07:00N 44°37' W 001°13'0 0.0
2018-Jan-26 06:30N 44°37' W 001°13'0 0.2
2018-Jan-26 06:00N 44°37' W 001°13'0 0.3
2018-Jan-26 05:30N 44°37' W 001°13'0 0.6
2018-Jan-26 05:00N 44°37' W 001°12'  

Dump ship's entire track history